sensor_id;sensor_type;location;lat;lon;timestamp;temperature;humidity
12981;DHT22;6555;50.468;8.480;2023-01-23T00:01:42;4.00;60.60
12981;DHT22;6555;50.468;8.480;2023-01-23T00:06:58;4.00;60.50
12981;DHT22;6555;50.468;8.480;2023-01-23T00:12:29;4.10;60.60
12981;DHT22;6555;50.468;8.480;2023-01-23T00:17:46;4.10;60.60
12981;DHT22;6555;50.468;8.480;2023-01-23T00:23:16;4.10;60.60
12981;DHT22;6555;50.468;8.480;2023-01-23T00:28:34;4.10;60.50
12981;DHT22;6555;50.468;8.480;2023-01-23T00:34:06;4.10;60.40
12981;DHT22;6555;50.468;8.480;2023-01-23T00:39:22;4.00;60.30
12981;DHT22;6555;50.468;8.480;2023-01-23T00:44:53;4.10;60.40
12981;DHT22;6555;50.468;8.480;2023-01-23T00:50:10;4.10;60.50
12981;DHT22;6555;50.468;8.480;2023-01-23T00:55:40;4.00;61.00
12981;DHT22;6555;50.468;8.480;2023-01-23T01:00:59;4.00;60.40
12981;DHT22;6555;50.468;8.480;2023-01-23T01:07:35;4.00;60.30
12981;DHT22;6555;50.468;8.480;2023-01-23T01:13:00;4.10;60.60
12981;DHT22;6555;50.468;8.480;2023-01-23T01:18:33;4.00;60.40
12981;DHT22;6555;50.468;8.480;2023-01-23T01:23:49;4.00;60.50
12981;DHT22;6555;50.468;8.480;2023-01-23T01:29:19;4.00;60.40
12981;DHT22;6555;50.468;8.480;2023-01-23T01:34:37;4.00;60.50
12981;DHT22;6555;50.468;8.480;2023-01-23T01:40:12;4.00;60.60
12981;DHT22;6555;50.468;8.480;2023-01-23T01:46:06;4.00;60.70
12981;DHT22;6555;50.468;8.480;2023-01-23T01:51:41;4.10;60.80
12981;DHT22;6555;50.468;8.480;2023-01-23T01:57:02;4.00;60.60
12981;DHT22;6555;50.468;8.480;2023-01-23T02:02:36;4.10;60.60
12981;DHT22;6555;50.468;8.480;2023-01-23T02:07:59;4.10;60.80
12981;DHT22;6555;50.468;8.480;2023-01-23T02:13:34;4.10;60.70
12981;DHT22;6555;50.468;8.480;2023-01-23T02:18:53;4.10;60.80
12981;DHT22;6555;50.468;8.480;2023-01-23T02:24:32;4.10;60.70
12981;DHT22;6555;50.468;8.480;2023-01-23T02:29:53;4.10;60.70
12981;DHT22;6555;50.468;8.480;2023-01-23T02:35:26;4.10;60.60
12981;DHT22;6555;50.468;8.480;2023-01-23T02:40:45;4.10;60.60
12981;DHT22;6555;50.468;8.480;2023-01-23T02:46:17;4.00;60.50
12981;DHT22;6555;50.468;8.480;2023-01-23T02:51:35;4.00;60.50
12981;DHT22;6555;50.468;8.480;2023-01-23T02:57:06;4.00;60.40
12981;DHT22;6555;50.468;8.480;2023-01-23T03:02:24;4.00;60.50
12981;DHT22;6555;50.468;8.480;2023-01-23T03:07:54;3.90;60.50
12981;DHT22;6555;50.468;8.480;2023-01-23T03:13:11;4.00;60.70
12981;DHT22;6555;50.468;8.480;2023-01-23T03:18:52;3.90;60.70
12981;DHT22;6555;50.468;8.480;2023-01-23T03:24:48;4.00;60.90
12981;DHT22;6555;50.468;8.480;2023-01-23T03:30:18;4.00;60.70
12981;DHT22;6555;50.468;8.480;2023-01-23T03:35:37;3.90;60.70
12981;DHT22;6555;50.468;8.480;2023-01-23T03:41:07;3.90;60.60
12981;DHT22;6555;50.468;8.480;2023-01-23T03:46:42;3.90;60.70
12981;DHT22;6555;50.468;8.480;2023-01-23T03:52:13;3.90;60.70
12981;DHT22;6555;50.468;8.480;2023-01-23T03:57:31;3.90;60.70
12981;DHT22;6555;50.468;8.480;2023-01-23T04:03:08;3.90;60.80
12981;DHT22;6555;50.468;8.480;2023-01-23T04:08:26;3.90;60.90
12981;DHT22;6555;50.468;8.480;2023-01-23T04:13:57;3.90;60.80
12981;DHT22;6555;50.468;8.480;2023-01-23T04:19:20;4.00;60.90
12981;DHT22;6555;50.468;8.480;2023-01-23T04:24:52;4.00;60.90
12981;DHT22;6555;50.468;8.480;2023-01-23T04:30:09;4.00;60.80
12981;DHT22;6555;50.468;8.480;2023-01-23T04:35:53;4.00;60.60
12981;DHT22;6555;50.468;8.480;2023-01-23T04:41:14;4.00;61.50
12981;DHT22;6555;50.468;8.480;2023-01-23T04:46:54;4.00;60.70
12981;DHT22;6555;50.468;8.480;2023-01-23T04:52:11;4.00;60.80
12981;DHT22;6555;50.468;8.480;2023-01-23T04:57:42;3.90;60.70
12981;DHT22;6555;50.468;8.480;2023-01-23T05:03:00;3.90;60.80
12981;DHT22;6555;50.468;8.480;2023-01-23T05:08:31;3.90;60.70
12981;DHT22;6555;50.468;8.480;2023-01-23T05:13:58;3.90;60.90
12981;DHT22;6555;50.468;8.480;2023-01-23T05:19:28;3.90;60.80
12981;DHT22;6555;50.468;8.480;2023-01-23T05:24:45;3.90;60.80
12981;DHT22;6555;50.468;8.480;2023-01-23T05:30:20;3.90;60.80
12981;DHT22;6555;50.468;8.480;2023-01-23T05:35:51;3.90;60.90
12981;DHT22;6555;50.468;8.480;2023-01-23T05:41:20;3.90;60.80
12981;DHT22;6555;50.468;8.480;2023-01-23T05:47:07;3.90;61.60
12981;DHT22;6555;50.468;8.480;2023-01-23T05:52:38;3.90;60.90
12981;DHT22;6555;50.468;8.480;2023-01-23T05:57:55;3.90;61.00
12981;DHT22;6555;50.468;8.480;2023-01-23T06:03:45;4.00;61.00
12981;DHT22;6555;50.468;8.480;2023-01-23T06:09:19;4.00;61.00
12981;DHT22;6555;50.468;8.480;2023-01-23T06:14:49;4.00;60.90
12981;DHT22;6555;50.468;8.480;2023-01-23T06:20:08;4.00;60.90
12981;DHT22;6555;50.468;8.480;2023-01-23T06:25:39;4.00;60.80
12981;DHT22;6555;50.468;8.480;2023-01-23T06:31:00;4.00;60.80
12981;DHT22;6555;50.468;8.480;2023-01-23T06:36:35;4.10;60.90
12981;DHT22;6555;50.468;8.480;2023-01-23T06:41:52;4.10;60.90
12981;DHT22;6555;50.468;8.480;2023-01-23T06:47:26;4.10;60.80
12981;DHT22;6555;50.468;8.480;2023-01-23T06:52:44;4.10;60.90
12981;DHT22;6555;50.468;8.480;2023-01-23T06:58:14;4.10;60.80
12981;DHT22;6555;50.468;8.480;2023-01-23T07:03:30;4.10;60.80
12981;DHT22;6555;50.468;8.480;2023-01-23T07:09:02;4.00;60.60
12981;DHT22;6555;50.468;8.480;2023-01-23T07:14:25;4.00;60.70
12981;DHT22;6555;50.468;8.480;2023-01-23T07:19:59;4.00;60.60
12981;DHT22;6555;50.468;8.480;2023-01-23T07:25:23;4.00;60.70
12981;DHT22;6555;50.468;8.480;2023-01-23T07:30:53;4.00;60.70
12981;DHT22;6555;50.468;8.480;2023-01-23T07:36:10;4.00;60.80
12981;DHT22;6555;50.468;8.480;2023-01-23T07:41:42;4.00;60.70
12981;DHT22;6555;50.468;8.480;2023-01-23T07:47:02;3.90;60.80
12981;DHT22;6555;50.468;8.480;2023-01-23T07:52:31;3.90;60.70
12981;DHT22;6555;50.468;8.480;2023-01-23T07:57:49;3.90;60.80
12981;DHT22;6555;50.468;8.480;2023-01-23T08:03:19;3.90;60.80
12981;DHT22;6555;50.468;8.480;2023-01-23T08:08:35;4.00;61.00
12981;DHT22;6555;50.468;8.480;2023-01-23T08:14:07;4.00;60.90
12981;DHT22;6555;50.468;8.480;2023-01-23T08:19:24;4.00;61.00
12981;DHT22;6555;50.468;8.480;2023-01-23T08:24:53;4.10;61.10
12981;DHT22;6555;50.468;8.480;2023-01-23T08:30:12;4.10;61.10
12981;DHT22;6555;50.468;8.480;2023-01-23T08:35:47;4.10;61.00
12981;DHT22;6555;50.468;8.480;2023-01-23T08:41:04;4.20;60.90
12981;DHT22;6555;50.468;8.480;2023-01-23T08:46:36;4.10;60.70
12981;DHT22;6555;50.468;8.480;2023-01-23T08:51:53;4.10;60.70
12981;DHT22;6555;50.468;8.480;2023-01-23T08:57:22;4.10;60.70
12981;DHT22;6555;50.468;8.480;2023-01-23T09:02:40;4.00;60.50
12981;DHT22;6555;50.468;8.480;2023-01-23T09:08:10;4.00;60.50
12981;DHT22;6555;50.468;8.480;2023-01-23T09:13:26;4.00;60.70
12981;DHT22;6555;50.468;8.480;2023-01-23T09:18:58;3.90;60.80
12981;DHT22;6555;50.468;8.480;2023-01-23T09:24:15;3.90;60.80
12981;DHT22;6555;50.468;8.480;2023-01-23T09:29:45;3.90;60.90
12981;DHT22;6555;50.468;8.480;2023-01-23T09:35:03;4.00;61.10
12981;DHT22;6555;50.468;8.480;2023-01-23T09:40:35;4.00;61.00
12981;DHT22;6555;50.468;8.480;2023-01-23T09:45:59;4.10;61.20
12981;DHT22;6555;50.468;8.480;2023-01-23T09:51:43;4.20;61.20
12981;DHT22;6555;50.468;8.480;2023-01-23T09:57:05;4.20;61.10
12981;DHT22;6555;50.468;8.480;2023-01-23T10:02:42;4.30;61.10
12981;DHT22;6555;50.468;8.480;2023-01-23T10:08:06;4.40;61.00
12981;DHT22;6555;50.468;8.480;2023-01-23T10:13:51;4.40;60.90
12981;DHT22;6555;50.468;8.480;2023-01-23T10:19:17;4.40;60.90
12981;DHT22;6555;50.468;8.480;2023-01-23T10:24:54;4.50;61.10
12981;DHT22;6555;50.468;8.480;2023-01-23T10:30:23;4.50;60.90
12981;DHT22;6555;50.468;8.480;2023-01-23T10:36:00;4.60;60.90
12981;DHT22;6555;50.468;8.480;2023-01-23T10:41:19;4.60;60.90
12981;DHT22;6555;50.468;8.480;2023-01-23T10:46:52;4.60;61.00
12981;DHT22;6555;50.468;8.480;2023-01-23T10:52:29;4.70;61.00
12981;DHT22;6555;50.468;8.480;2023-01-23T10:58:01;4.80;60.90
12981;DHT22;6555;50.468;8.480;2023-01-23T11:03:26;4.80;60.80
12981;DHT22;6555;50.468;8.480;2023-01-23T11:08:58;4.80;60.80
12981;DHT22;6555;50.468;8.480;2023-01-23T11:14:20;4.80;60.70
12981;DHT22;6555;50.468;8.480;2023-01-23T11:19:51;4.90;60.80
12981;DHT22;6555;50.468;8.480;2023-01-23T11:25:27;4.90;60.90
12981;DHT22;6555;50.468;8.480;2023-01-23T11:31:03;4.90;60.90
12981;DHT22;6555;50.468;8.480;2023-01-23T11:36:37;5.00;60.90
12981;DHT22;6555;50.468;8.480;2023-01-23T11:42:10;5.00;60.60
12981;DHT22;6555;50.468;8.480;2023-01-23T11:47:52;5.10;60.60
12981;DHT22;6555;50.468;8.480;2023-01-23T11:53:30;5.10;60.70
12981;DHT22;6555;50.468;8.480;2023-01-23T12:05:14;5.10;60.90
12981;DHT22;6555;50.468;8.480;2023-01-23T12:10:47;5.20;60.70
12981;DHT22;6555;50.468;8.480;2023-01-23T12:16:22;5.20;60.70
12981;DHT22;6555;50.468;8.480;2023-01-23T12:21:46;5.20;60.40
12981;DHT22;6555;50.468;8.480;2023-01-23T12:27:26;5.20;60.40
12981;DHT22;6555;50.468;8.480;2023-01-23T12:32:55;5.20;60.50
12981;DHT22;6555;50.468;8.480;2023-01-23T12:38:31;5.10;60.60
12981;DHT22;6555;50.468;8.480;2023-01-23T12:43:58;5.10;60.50
12981;DHT22;6555;50.468;8.480;2023-01-23T12:49:34;5.10;60.40
12981;DHT22;6555;50.468;8.480;2023-01-23T12:55:01;5.10;60.70
12981;DHT22;6555;50.468;8.480;2023-01-23T13:00:41;5.20;60.90
12981;DHT22;6555;50.468;8.480;2023-01-23T13:06:25;5.30;61.00
12981;DHT22;6555;50.468;8.480;2023-01-23T13:12:00;5.40;61.10
12981;DHT22;6555;50.468;8.480;2023-01-23T13:17:43;5.50;61.00
12981;DHT22;6555;50.468;8.480;2023-01-23T13:23:22;5.60;60.70
12981;DHT22;6555;50.468;8.480;2023-01-23T13:28:55;5.60;60.50
12981;DHT22;6555;50.468;8.480;2023-01-23T13:34:33;5.70;60.40
12981;DHT22;6555;50.468;8.480;2023-01-23T13:40:13;5.70;60.50
12981;DHT22;6555;50.468;8.480;2023-01-23T13:45:32;5.60;60.40
12981;DHT22;6555;50.468;8.480;2023-01-23T13:51:13;5.60;60.30
12981;DHT22;6555;50.468;8.480;2023-01-23T13:56:48;5.60;60.30
12981;DHT22;6555;50.468;8.480;2023-01-23T14:02:37;5.50;60.20
12981;DHT22;6555;50.468;8.480;2023-01-23T14:08:27;5.50;60.00
12981;DHT22;6555;50.468;8.480;2023-01-23T14:14:11;5.50;60.20
12981;DHT22;6555;50.468;8.480;2023-01-23T14:20:04;5.40;60.10
12981;DHT22;6555;50.468;8.480;2023-01-23T14:25:36;5.30;60.20
12981;DHT22;6555;50.468;8.480;2023-01-23T14:30:58;5.30;60.20
12981;DHT22;6555;50.468;8.480;2023-01-23T14:36:31;5.30;60.30
12981;DHT22;6555;50.468;8.480;2023-01-23T14:41:49;5.20;60.20
12981;DHT22;6555;50.468;8.480;2023-01-23T14:47:28;5.20;60.30
12981;DHT22;6555;50.468;8.480;2023-01-23T14:52:57;5.20;60.30
12981;DHT22;6555;50.468;8.480;2023-01-23T14:58:29;5.20;60.20
12981;DHT22;6555;50.468;8.480;2023-01-23T15:03:59;5.20;60.20
12981;DHT22;6555;50.468;8.480;2023-01-23T15:09:32;5.20;60.10
12981;DHT22;6555;50.468;8.480;2023-01-23T15:14:53;5.10;60.20
12981;DHT22;6555;50.468;8.480;2023-01-23T15:20:33;5.20;60.20
12981;DHT22;6555;50.468;8.480;2023-01-23T15:26:09;5.10;59.90
12981;DHT22;6555;50.468;8.480;2023-01-23T15:31:43;5.10;60.10
12981;DHT22;6555;50.468;8.480;2023-01-23T15:37:03;5.10;60.10
12981;DHT22;6555;50.468;8.480;2023-01-23T15:42:35;5.20;60.10
12981;DHT22;6555;50.468;8.480;2023-01-23T15:47:52;5.20;60.20
12981;DHT22;6555;50.468;8.480;2023-01-23T15:53:22;5.20;60.30
12981;DHT22;6555;50.468;8.480;2023-01-23T15:58:39;5.20;60.20
12981;DHT22;6555;50.468;8.480;2023-01-23T16:04:10;5.20;60.10
12981;DHT22;6555;50.468;8.480;2023-01-23T16:09:37;5.10;60.10
12981;DHT22;6555;50.468;8.480;2023-01-23T16:15:14;5.10;60.10
12981;DHT22;6555;50.468;8.480;2023-01-23T16:20:33;5.10;60.10
12981;DHT22;6555;50.468;8.480;2023-01-23T16:26:04;5.00;60.10
12981;DHT22;6555;50.468;8.480;2023-01-23T16:31:21;5.00;60.10
12981;DHT22;6555;50.468;8.480;2023-01-23T16:36:54;5.00;60.20
12981;DHT22;6555;50.468;8.480;2023-01-23T16:42:18;4.90;60.20
12981;DHT22;6555;50.468;8.480;2023-01-23T16:47:50;5.00;60.30
12981;DHT22;6555;50.468;8.480;2023-01-23T16:53:09;4.90;60.30
12981;DHT22;6555;50.468;8.480;2023-01-23T16:58:42;5.00;60.20
12981;DHT22;6555;50.468;8.480;2023-01-23T17:04:01;5.00;60.10
12981;DHT22;6555;50.468;8.480;2023-01-23T17:09:32;5.00;60.20
12981;DHT22;6555;50.468;8.480;2023-01-23T17:14:48;4.90;60.30
12981;DHT22;6555;50.468;8.480;2023-01-23T17:20:20;4.90;60.30
12981;DHT22;6555;50.468;8.480;2023-01-23T17:25:37;4.90;60.30
12981;DHT22;6555;50.468;8.480;2023-01-23T17:31:17;4.90;60.30
12981;DHT22;6555;50.468;8.480;2023-01-23T17:36:36;4.90;60.30
12981;DHT22;6555;50.468;8.480;2023-01-23T17:42:08;4.90;60.30
12981;DHT22;6555;50.468;8.480;2023-01-23T17:47:25;4.90;60.30
12981;DHT22;6555;50.468;8.480;2023-01-23T17:52:57;4.90;60.30
12981;DHT22;6555;50.468;8.480;2023-01-23T17:58:14;4.90;60.40
12981;DHT22;6555;50.468;8.480;2023-01-23T18:03:45;4.90;60.40
12981;DHT22;6555;50.468;8.480;2023-01-23T18:09:02;4.90;60.40
12981;DHT22;6555;50.468;8.480;2023-01-23T18:14:40;4.90;60.40
12981;DHT22;6555;50.468;8.480;2023-01-23T18:20:00;4.90;60.40
12981;DHT22;6555;50.468;8.480;2023-01-23T18:25:33;4.90;60.50
12981;DHT22;6555;50.468;8.480;2023-01-23T18:30:56;4.90;60.50
12981;DHT22;6555;50.468;8.480;2023-01-23T18:36:38;4.90;60.50
12981;DHT22;6555;50.468;8.480;2023-01-23T18:42:09;5.00;60.50
12981;DHT22;6555;50.468;8.480;2023-01-23T18:47:42;5.00;60.50
12981;DHT22;6555;50.468;8.480;2023-01-23T18:53:06;5.10;60.50
12981;DHT22;6555;50.468;8.480;2023-01-23T18:58:51;5.10;60.50
12981;DHT22;6555;50.468;8.480;2023-01-23T19:04:26;5.10;60.60
12981;DHT22;6555;50.468;8.480;2023-01-23T19:09:59;5.10;60.50
12981;DHT22;6555;50.468;8.480;2023-01-23T19:15:25;5.20;60.50
12981;DHT22;6555;50.468;8.480;2023-01-23T19:21:05;5.20;60.50
12981;DHT22;6555;50.468;8.480;2023-01-23T19:26:26;5.20;60.50
12981;DHT22;6555;50.468;8.480;2023-01-23T19:31:59;5.20;60.40
12981;DHT22;6555;50.468;8.480;2023-01-23T19:37:15;5.20;60.30
12981;DHT22;6555;50.468;8.480;2023-01-23T19:42:46;5.20;60.30
12981;DHT22;6555;50.468;8.480;2023-01-23T19:48:22;5.10;60.30
12981;DHT22;6555;50.468;8.480;2023-01-23T19:53:53;5.10;60.70
12981;DHT22;6555;50.468;8.480;2023-01-23T19:59:10;5.00;60.20
12981;DHT22;6555;50.468;8.480;2023-01-23T20:04:41;5.00;60.30
12981;DHT22;6555;50.468;8.480;2023-01-23T20:09:58;5.10;60.50
12981;DHT22;6555;50.468;8.480;2023-01-23T20:15:28;5.00;60.40
12981;DHT22;6555;50.468;8.480;2023-01-23T20:20:46;5.00;60.40
12981;DHT22;6555;50.468;8.480;2023-01-23T20:26:18;5.10;60.50
12981;DHT22;6555;50.468;8.480;2023-01-23T20:31:35;5.10;60.40
12981;DHT22;6555;50.468;8.480;2023-01-23T20:37:06;5.10;60.40
12981;DHT22;6555;50.468;8.480;2023-01-23T20:42:23;5.10;60.30
12981;DHT22;6555;50.468;8.480;2023-01-23T20:47:53;5.00;60.30
12981;DHT22;6555;50.468;8.480;2023-01-23T20:53:20;5.00;60.20
12981;DHT22;6555;50.468;8.480;2023-01-23T20:58:55;4.90;60.40
12981;DHT22;6555;50.468;8.480;2023-01-23T21:04:31;4.90;60.40
12981;DHT22;6555;50.468;8.480;2023-01-23T21:10:04;4.90;60.40
12981;DHT22;6555;50.468;8.480;2023-01-23T21:15:20;5.00;60.40
12981;DHT22;6555;50.468;8.480;2023-01-23T21:20:50;4.90;60.40
12981;DHT22;6555;50.468;8.480;2023-01-23T21:26:08;5.00;60.30
12981;DHT22;6555;50.468;8.480;2023-01-23T21:31:39;4.90;60.30
12981;DHT22;6555;50.468;8.480;2023-01-23T21:36:55;5.00;60.30
12981;DHT22;6555;50.468;8.480;2023-01-23T21:42:29;4.90;60.20
12981;DHT22;6555;50.468;8.480;2023-01-23T21:47:46;4.90;60.30
12981;DHT22;6555;50.468;8.480;2023-01-23T21:53:16;4.90;60.20
12981;DHT22;6555;50.468;8.480;2023-01-23T21:58:33;4.90;60.30
12981;DHT22;6555;50.468;8.480;2023-01-23T22:04:05;4.90;60.30
12981;DHT22;6555;50.468;8.480;2023-01-23T22:09:24;4.90;60.30
12981;DHT22;6555;50.468;8.480;2023-01-23T22:14:55;4.90;60.30
12981;DHT22;6555;50.468;8.480;2023-01-23T22:20:12;4.90;60.20
12981;DHT22;6555;50.468;8.480;2023-01-23T22:25:43;4.90;60.30
12981;DHT22;6555;50.468;8.480;2023-01-23T22:31:15;4.90;60.30
12981;DHT22;6555;50.468;8.480;2023-01-23T22:36:32;4.90;60.30
12981;DHT22;6555;50.468;8.480;2023-01-23T22:42:02;4.90;60.40
12981;DHT22;6555;50.468;8.480;2023-01-23T22:47:20;4.90;60.30
12981;DHT22;6555;50.468;8.480;2023-01-23T22:52:51;4.90;60.30
12981;DHT22;6555;50.468;8.480;2023-01-23T22:58:08;4.90;60.30
12981;DHT22;6555;50.468;8.480;2023-01-23T23:03:40;4.90;60.20
12981;DHT22;6555;50.468;8.480;2023-01-23T23:08:57;4.90;60.30
12981;DHT22;6555;50.468;8.480;2023-01-23T23:14:27;4.80;60.20
12981;DHT22;6555;50.468;8.480;2023-01-23T23:19:44;4.80;60.20
12981;DHT22;6555;50.468;8.480;2023-01-23T23:25:15;4.80;60.20
12981;DHT22;6555;50.468;8.480;2023-01-23T23:30:31;4.80;60.20
12981;DHT22;6555;50.468;8.480;2023-01-23T23:36:02;4.80;60.20
12981;DHT22;6555;50.468;8.480;2023-01-23T23:41:19;4.80;60.20
12981;DHT22;6555;50.468;8.480;2023-01-23T23:46:49;4.80;60.20
12981;DHT22;6555;50.468;8.480;2023-01-23T23:52:06;4.70;60.20
12981;DHT22;6555;50.468;8.480;2023-01-23T23:57:44;4.80;60.30
